sensor_id;sensor_type;location;lat;lon;timestamp;P1;durP1;ratioP1;P2;durP2;ratioP2
20908;SDS011;10614;53.198;6.570;2022-12-15T00:01:07;9.43;;;4.07;;
20908;SDS011;10614;53.198;6.570;2022-12-15T00:03:26;6.72;;;3.35;;
20908;SDS011;10614;53.198;6.570;2022-12-15T00:05:47;7.97;;;3.35;;
20908;SDS011;10614;53.198;6.570;2022-12-15T00:08:06;6.85;;;3.10;;
20908;SDS011;10614;53.198;6.570;2022-12-15T00:10:27;7.03;;;3.45;;
20908;SDS011;10614;53.198;6.570;2022-12-15T00:12:46;8.38;;;3.60;;
20908;SDS011;10614;53.198;6.570;2022-12-15T00:15:06;7.35;;;3.30;;
20908;SDS011;10614;53.198;6.570;2022-12-15T00:17:26;7.28;;;3.03;;
20908;SDS011;10614;53.198;6.570;2022-12-15T00:19:45;8.40;;;3.20;;
20908;SDS011;10614;53.198;6.570;2022-12-15T00:37:45;5.35;;;2.65;;
20908;SDS011;10614;53.198;6.570;2022-12-15T00:40:05;7.70;;;2.75;;
20908;SDS011;10614;53.198;6.570;2022-12-15T00:42:08;6.32;;;2.72;;
20908;SDS011;10614;53.198;6.570;2022-12-15T00:44:10;7.57;;;3.20;;
20908;SDS011;10614;53.198;6.570;2022-12-15T00:46:12;6.05;;;2.60;;
20908;SDS011;10614;53.198;6.570;2022-12-15T00:48:32;6.22;;;3.00;;
20908;SDS011;10614;53.198;6.570;2022-12-15T00:50:33;8.70;;;2.83;;
20908;SDS011;10614;53.198;6.570;2022-12-15T00:52:53;6.10;;;2.50;;
20908;SDS011;10614;53.198;6.570;2022-12-15T00:55:12;6.45;;;2.80;;
20908;SDS011;10614;53.198;6.570;2022-12-15T00:57:32;8.07;;;2.88;;
20908;SDS011;10614;53.198;6.570;2022-12-15T00:59:51;10.30;;;3.00;;
20908;SDS011;10614;53.198;6.570;2022-12-15T01:02:10;5.32;;;2.33;;
20908;SDS011;10614;53.198;6.570;2022-12-15T01:04:29;5.93;;;2.75;;
20908;SDS011;10614;53.198;6.570;2022-12-15T01:06:48;9.13;;;2.72;;
20908;SDS011;10614;53.198;6.570;2022-12-15T01:09:09;8.57;;;2.88;;
20908;SDS011;10614;53.198;6.570;2022-12-15T01:11:30;9.35;;;2.85;;
20908;SDS011;10614;53.198;6.570;2022-12-15T01:13:49;7.95;;;2.83;;
20908;SDS011;10614;53.198;6.570;2022-12-15T01:16:09;5.70;;;2.63;;
20908;SDS011;10614;53.198;6.570;2022-12-15T01:18:31;6.78;;;2.58;;
20908;SDS011;10614;53.198;6.570;2022-12-15T01:20:54;6.65;;;2.25;;
20908;SDS011;10614;53.198;6.570;2022-12-15T01:22:56;8.25;;;2.90;;
20908;SDS011;10614;53.198;6.570;2022-12-15T01:24:59;5.60;;;2.72;;
20908;SDS011;10614;53.198;6.570;2022-12-15T01:27:01;7.70;;;2.13;;
20908;SDS011;10614;53.198;6.570;2022-12-15T01:29:02;5.05;;;2.50;;
20908;SDS011;10614;53.198;6.570;2022-12-15T01:31:08;5.30;;;2.17;;
20908;SDS011;10614;53.198;6.570;2022-12-15T01:33:11;3.80;;;2.15;;
20908;SDS011;10614;53.198;6.570;2022-12-15T01:35:13;7.72;;;2.78;;
20908;SDS011;10614;53.198;6.570;2022-12-15T01:37:14;4.07;;;2.20;;
20908;SDS011;10614;53.198;6.570;2022-12-15T01:39:16;7.32;;;2.65;;
20908;SDS011;10614;53.198;6.570;2022-12-15T01:41:19;6.65;;;2.80;;
20908;SDS011;10614;53.198;6.570;2022-12-15T01:43:21;5.43;;;2.20;;
20908;SDS011;10614;53.198;6.570;2022-12-15T01:48:03;5.43;;;2.30;;
20908;SDS011;10614;53.198;6.570;2022-12-15T01:50:06;6.13;;;2.65;;
20908;SDS011;10614;53.198;6.570;2022-12-15T01:52:14;6.13;;;2.40;;
20908;SDS011;10614;53.198;6.570;2022-12-15T01:54:17;5.93;;;2.42;;
20908;SDS011;10614;53.198;6.570;2022-12-15T01:56:25;3.75;;;2.00;;
20908;SDS011;10614;53.198;6.570;2022-12-15T01:58:27;5.50;;;2.33;;
20908;SDS011;10614;53.198;6.570;2022-12-15T02:00:29;7.22;;;2.55;;
20908;SDS011;10614;53.198;6.570;2022-12-15T02:02:31;5.75;;;2.25;;
20908;SDS011;10614;53.198;6.570;2022-12-15T02:04:35;4.00;;;1.80;;
20908;SDS011;10614;53.198;6.570;2022-12-15T02:06:37;5.57;;;2.20;;
20908;SDS011;10614;53.198;6.570;2022-12-15T02:08:39;6.53;;;2.33;;
20908;SDS011;10614;53.198;6.570;2022-12-15T02:10:58;5.55;;;2.83;;
20908;SDS011;10614;53.198;6.570;2022-12-15T02:13:13;3.40;;;1.80;;
20908;SDS011;10614;53.198;6.570;2022-12-15T02:15:20;5.07;;;2.15;;
20908;SDS011;10614;53.198;6.570;2022-12-15T02:17:30;4.93;;;2.25;;
20908;SDS011;10614;53.198;6.570;2022-12-15T02:22:32;11.82;;;3.15;;
20908;SDS011;10614;53.198;6.570;2022-12-15T02:27:46;4.90;;;2.60;;
20908;SDS011;10614;53.198;6.570;2022-12-15T02:32:26;7.68;;;2.80;;
20908;SDS011;10614;53.198;6.570;2022-12-15T02:34:32;7.47;;;2.80;;
20908;SDS011;10614;53.198;6.570;2022-12-15T02:36:39;7.55;;;3.10;;
20908;SDS011;10614;53.198;6.570;2022-12-15T02:38:44;6.40;;;2.50;;
20908;SDS011;10614;53.198;6.570;2022-12-15T02:40:46;7.70;;;3.50;;
20908;SDS011;10614;53.198;6.570;2022-12-15T02:42:48;6.18;;;2.47;;
20908;SDS011;10614;53.198;6.570;2022-12-15T02:44:52;3.85;;;2.03;;
20908;SDS011;10614;53.198;6.570;2022-12-15T02:47:03;6.18;;;3.15;;
20908;SDS011;10614;53.198;6.570;2022-12-15T02:49:18;6.75;;;3.22;;
20908;SDS011;10614;53.198;6.570;2022-12-15T02:51:33;5.90;;;2.50;;
20908;SDS011;10614;53.198;6.570;2022-12-15T02:53:48;6.13;;;2.30;;
20908;SDS011;10614;53.198;6.570;2022-12-15T02:56:04;5.15;;;2.50;;
20908;SDS011;10614;53.198;6.570;2022-12-15T02:58:17;5.53;;;2.42;;
20908;SDS011;10614;53.198;6.570;2022-12-15T03:00:25;4.90;;;2.42;;
20908;SDS011;10614;53.198;6.570;2022-12-15T03:02:31;5.00;;;2.10;;
20908;SDS011;10614;53.198;6.570;2022-12-15T03:04:37;4.88;;;2.47;;
20908;SDS011;10614;53.198;6.570;2022-12-15T03:06:40;4.70;;;2.08;;
20908;SDS011;10614;53.198;6.570;2022-12-15T03:08:42;5.05;;;2.53;;
20908;SDS011;10614;53.198;6.570;2022-12-15T03:10:43;5.03;;;2.40;;
20908;SDS011;10614;53.198;6.570;2022-12-15T03:12:45;8.00;;;2.83;;
20908;SDS011;10614;53.198;6.570;2022-12-15T03:14:47;4.50;;;2.20;;
20908;SDS011;10614;53.198;6.570;2022-12-15T03:16:48;6.15;;;2.42;;
20908;SDS011;10614;53.198;6.570;2022-12-15T03:18:51;9.23;;;3.03;;
20908;SDS011;10614;53.198;6.570;2022-12-15T03:20:54;5.75;;;2.47;;
20908;SDS011;10614;53.198;6.570;2022-12-15T03:22:55;5.47;;;2.00;;
20908;SDS011;10614;53.198;6.570;2022-12-15T03:24:57;5.88;;;2.13;;
20908;SDS011;10614;53.198;6.570;2022-12-15T03:26:59;3.78;;;1.75;;
20908;SDS011;10614;53.198;6.570;2022-12-15T03:29:01;9.05;;;2.72;;
20908;SDS011;10614;53.198;6.570;2022-12-15T03:31:03;5.43;;;2.15;;
20908;SDS011;10614;53.198;6.570;2022-12-15T03:33:05;6.00;;;2.55;;
20908;SDS011;10614;53.198;6.570;2022-12-15T03:35:09;11.52;;;2.22;;
20908;SDS011;10614;53.198;6.570;2022-12-15T03:37:11;3.78;;;1.38;;
20908;SDS011;10614;53.198;6.570;2022-12-15T03:39:14;5.30;;;1.83;;
20908;SDS011;10614;53.198;6.570;2022-12-15T03:41:15;3.85;;;1.42;;
20908;SDS011;10614;53.198;6.570;2022-12-15T03:43:18;6.85;;;2.05;;
20908;SDS011;10614;53.198;6.570;2022-12-15T03:45:20;3.83;;;1.85;;
20908;SDS011;10614;53.198;6.570;2022-12-15T03:47:23;2.40;;;1.13;;
20908;SDS011;10614;53.198;6.570;2022-12-15T03:49:25;5.95;;;1.77;;
20908;SDS011;10614;53.198;6.570;2022-12-15T03:51:28;4.50;;;1.48;;
20908;SDS011;10614;53.198;6.570;2022-12-15T03:53:30;3.88;;;1.45;;
20908;SDS011;10614;53.198;6.570;2022-12-15T03:55:31;3.03;;;1.30;;
20908;SDS011;10614;53.198;6.570;2022-12-15T03:57:34;4.05;;;1.42;;
20908;SDS011;10614;53.198;6.570;2022-12-15T03:59:35;3.63;;;1.35;;
20908;SDS011;10614;53.198;6.570;2022-12-15T04:01:37;2.70;;;1.30;;
20908;SDS011;10614;53.198;6.570;2022-12-15T04:03:46;3.88;;;1.38;;
20908;SDS011;10614;53.198;6.570;2022-12-15T04:05:48;4.53;;;1.45;;
20908;SDS011;10614;53.198;6.570;2022-12-15T04:07:51;2.70;;;1.20;;
20908;SDS011;10614;53.198;6.570;2022-12-15T04:09:53;3.70;;;1.30;;
20908;SDS011;10614;53.198;6.570;2022-12-15T04:11:55;3.35;;;1.23;;
20908;SDS011;10614;53.198;6.570;2022-12-15T04:13:56;2.75;;;1.38;;
20908;SDS011;10614;53.198;6.570;2022-12-15T04:16:00;3.40;;;1.30;;
20908;SDS011;10614;53.198;6.570;2022-12-15T04:18:02;2.13;;;1.02;;
20908;SDS011;10614;53.198;6.570;2022-12-15T04:20:06;8.32;;;1.67;;
20908;SDS011;10614;53.198;6.570;2022-12-15T04:22:10;3.67;;;1.30;;
20908;SDS011;10614;53.198;6.570;2022-12-15T04:24:13;2.75;;;1.02;;
20908;SDS011;10614;53.198;6.570;2022-12-15T04:26:32;2.45;;;1.20;;
20908;SDS011;10614;53.198;6.570;2022-12-15T04:28:51;4.75;;;1.20;;
20908;SDS011;10614;53.198;6.570;2022-12-15T04:31:10;2.58;;;0.95;;
20908;SDS011;10614;53.198;6.570;2022-12-15T04:33:32;2.92;;;0.90;;
20908;SDS011;10614;53.198;6.570;2022-12-15T04:35:51;3.40;;;1.55;;
20908;SDS011;10614;53.198;6.570;2022-12-15T04:38:11;3.95;;;1.45;;
20908;SDS011;10614;53.198;6.570;2022-12-15T04:40:31;2.45;;;0.90;;
20908;SDS011;10614;53.198;6.570;2022-12-15T04:42:50;5.15;;;1.40;;
20908;SDS011;10614;53.198;6.570;2022-12-15T04:45:10;6.07;;;1.33;;
20908;SDS011;10614;53.198;6.570;2022-12-15T04:47:31;2.08;;;1.08;;
20908;SDS011;10614;53.198;6.570;2022-12-15T04:49:50;3.10;;;1.20;;
20908;SDS011;10614;53.198;6.570;2022-12-15T04:52:09;4.50;;;1.30;;
20908;SDS011;10614;53.198;6.570;2022-12-15T04:54:29;5.38;;;1.65;;
20908;SDS011;10614;53.198;6.570;2022-12-15T04:56:49;3.75;;;1.23;;
20908;SDS011;10614;53.198;6.570;2022-12-15T04:59:08;5.72;;;1.60;;
20908;SDS011;10614;53.198;6.570;2022-12-15T05:01:27;2.65;;;1.25;;
20908;SDS011;10614;53.198;6.570;2022-12-15T05:03:47;3.70;;;1.73;;
20908;SDS011;10614;53.198;6.570;2022-12-15T05:06:06;4.45;;;1.70;;
20908;SDS011;10614;53.198;6.570;2022-12-15T05:08:25;6.72;;;2.35;;
20908;SDS011;10614;53.198;6.570;2022-12-15T05:10:45;5.55;;;2.25;;
20908;SDS011;10614;53.198;6.570;2022-12-15T05:13:05;3.55;;;1.75;;
20908;SDS011;10614;53.198;6.570;2022-12-15T05:15:26;5.15;;;2.35;;
20908;SDS011;10614;53.198;6.570;2022-12-15T05:17:45;4.07;;;1.83;;
20908;SDS011;10614;53.198;6.570;2022-12-15T05:20:04;6.03;;;2.35;;
20908;SDS011;10614;53.198;6.570;2022-12-15T05:22:24;5.97;;;2.50;;
20908;SDS011;10614;53.198;6.570;2022-12-15T05:24:43;5.97;;;2.90;;
20908;SDS011;10614;53.198;6.570;2022-12-15T05:27:02;6.55;;;2.78;;
20908;SDS011;10614;53.198;6.570;2022-12-15T05:29:23;5.32;;;2.70;;
20908;SDS011;10614;53.198;6.570;2022-12-15T05:31:42;5.85;;;2.58;;
20908;SDS011;10614;53.198;6.570;2022-12-15T05:33:51;7.57;;;3.08;;
20908;SDS011;10614;53.198;6.570;2022-12-15T05:35:54;5.03;;;2.30;;
20908;SDS011;10614;53.198;6.570;2022-12-15T05:37:57;5.63;;;2.47;;
20908;SDS011;10614;53.198;6.570;2022-12-15T05:39:58;7.55;;;3.20;;
20908;SDS011;10614;53.198;6.570;2022-12-15T05:42:00;9.00;;;2.30;;
20908;SDS011;10614;53.198;6.570;2022-12-15T05:44:02;9.05;;;3.17;;
20908;SDS011;10614;53.198;6.570;2022-12-15T05:46:05;10.70;;;2.85;;
20908;SDS011;10614;53.198;6.570;2022-12-15T05:48:06;6.15;;;3.40;;
20908;SDS011;10614;53.198;6.570;2022-12-15T05:50:08;6.22;;;2.78;;
20908;SDS011;10614;53.198;6.570;2022-12-15T05:52:10;6.35;;;3.05;;
20908;SDS011;10614;53.198;6.570;2022-12-15T05:54:12;7.35;;;2.90;;
20908;SDS011;10614;53.198;6.570;2022-12-15T05:56:16;5.75;;;2.80;;
20908;SDS011;10614;53.198;6.570;2022-12-15T05:58:17;7.90;;;3.13;;
20908;SDS011;10614;53.198;6.570;2022-12-15T06:00:19;4.78;;;2.35;;
20908;SDS011;10614;53.198;6.570;2022-12-15T06:02:23;5.00;;;2.72;;
20908;SDS011;10614;53.198;6.570;2022-12-15T06:04:25;8.20;;;2.70;;
20908;SDS011;10614;53.198;6.570;2022-12-15T06:06:27;5.80;;;2.83;;
20908;SDS011;10614;53.198;6.570;2022-12-15T06:08:29;9.48;;;2.70;;
20908;SDS011;10614;53.198;6.570;2022-12-15T06:10:33;7.32;;;3.22;;
20908;SDS011;10614;53.198;6.570;2022-12-15T06:12:34;8.77;;;3.47;;
20908;SDS011;10614;53.198;6.570;2022-12-15T06:14:36;5.18;;;2.53;;
20908;SDS011;10614;53.198;6.570;2022-12-15T06:16:37;8.23;;;3.17;;
20908;SDS011;10614;53.198;6.570;2022-12-15T06:18:41;11.50;;;3.90;;
20908;SDS011;10614;53.198;6.570;2022-12-15T06:20:44;7.53;;;3.00;;
20908;SDS011;10614;53.198;6.570;2022-12-15T06:22:45;9.90;;;3.45;;
20908;SDS011;10614;53.198;6.570;2022-12-15T06:24:47;7.47;;;3.53;;
20908;SDS011;10614;53.198;6.570;2022-12-15T06:26:49;10.98;;;3.30;;
20908;SDS011;10614;53.198;6.570;2022-12-15T06:28:50;7.40;;;3.28;;
20908;SDS011;10614;53.198;6.570;2022-12-15T06:30:53;9.98;;;3.28;;
20908;SDS011;10614;53.198;6.570;2022-12-15T06:32:56;5.45;;;2.70;;
20908;SDS011;10614;53.198;6.570;2022-12-15T06:34:59;9.52;;;2.72;;
20908;SDS011;10614;53.198;6.570;2022-12-15T06:37:01;5.88;;;3.00;;
20908;SDS011;10614;53.198;6.570;2022-12-15T06:39:05;12.85;;;2.90;;
20908;SDS011;10614;53.198;6.570;2022-12-15T06:41:08;7.85;;;3.50;;
20908;SDS011;10614;53.198;6.570;2022-12-15T06:43:11;6.68;;;2.92;;
20908;SDS011;10614;53.198;6.570;2022-12-15T06:45:13;7.35;;;2.90;;
20908;SDS011;10614;53.198;6.570;2022-12-15T06:47:14;6.05;;;2.72;;
20908;SDS011;10614;53.198;6.570;2022-12-15T06:49:17;7.90;;;2.83;;
20908;SDS011;10614;53.198;6.570;2022-12-15T06:51:20;11.15;;;3.22;;
20908;SDS011;10614;53.198;6.570;2022-12-15T06:53:22;4.70;;;2.40;;
20908;SDS011;10614;53.198;6.570;2022-12-15T06:55:24;8.80;;;2.78;;
20908;SDS011;10614;53.198;6.570;2022-12-15T06:57:26;7.93;;;2.90;;
20908;SDS011;10614;53.198;6.570;2022-12-15T06:59:28;8.38;;;3.38;;
20908;SDS011;10614;53.198;6.570;2022-12-15T07:01:30;8.75;;;3.33;;
20908;SDS011;10614;53.198;6.570;2022-12-15T07:03:32;7.85;;;2.90;;
20908;SDS011;10614;53.198;6.570;2022-12-15T07:05:35;5.68;;;2.75;;
20908;SDS011;10614;53.198;6.570;2022-12-15T07:07:38;7.30;;;2.97;;
20908;SDS011;10614;53.198;6.570;2022-12-15T07:09:39;7.78;;;2.67;;
20908;SDS011;10614;53.198;6.570;2022-12-15T07:11:41;7.68;;;2.88;;
20908;SDS011;10614;53.198;6.570;2022-12-15T07:13:47;7.18;;;3.90;;
20908;SDS011;10614;53.198;6.570;2022-12-15T07:15:49;10.75;;;4.10;;
20908;SDS011;10614;53.198;6.570;2022-12-15T07:17:53;8.80;;;3.40;;
20908;SDS011;10614;53.198;6.570;2022-12-15T07:19:55;5.80;;;2.85;;
20908;SDS011;10614;53.198;6.570;2022-12-15T07:21:57;9.40;;;3.00;;
20908;SDS011;10614;53.198;6.570;2022-12-15T07:24:01;6.25;;;2.88;;
20908;SDS011;10614;53.198;6.570;2022-12-15T07:26:03;7.40;;;3.22;;
20908;SDS011;10614;53.198;6.570;2022-12-15T07:28:07;7.30;;;3.10;;
20908;SDS011;10614;53.198;6.570;2022-12-15T07:30:11;7.28;;;3.50;;
20908;SDS011;10614;53.198;6.570;2022-12-15T07:32:14;11.05;;;3.20;;
20908;SDS011;10614;53.198;6.570;2022-12-15T07:34:15;6.38;;;2.90;;
20908;SDS011;10614;53.198;6.570;2022-12-15T07:36:18;7.35;;;3.20;;
20908;SDS011;10614;53.198;6.570;2022-12-15T07:38:19;8.88;;;3.55;;
20908;SDS011;10614;53.198;6.570;2022-12-15T07:40:22;7.28;;;3.33;;
20908;SDS011;10614;53.198;6.570;2022-12-15T07:42:24;6.93;;;3.35;;
20908;SDS011;10614;53.198;6.570;2022-12-15T07:44:28;6.97;;;2.42;;
20908;SDS011;10614;53.198;6.570;2022-12-15T07:46:31;6.00;;;2.92;;
20908;SDS011;10614;53.198;6.570;2022-12-15T07:48:32;5.47;;;2.60;;
20908;SDS011;10614;53.198;6.570;2022-12-15T07:50:35;8.25;;;3.25;;
20908;SDS011;10614;53.198;6.570;2022-12-15T07:52:38;6.68;;;2.97;;
20908;SDS011;10614;53.198;6.570;2022-12-15T07:54:40;5.97;;;2.83;;
20908;SDS011;10614;53.198;6.570;2022-12-15T07:56:43;7.88;;;3.17;;
20908;SDS011;10614;53.198;6.570;2022-12-15T07:58:46;6.95;;;2.88;;
20908;SDS011;10614;53.198;6.570;2022-12-15T08:00:47;5.15;;;2.75;;
20908;SDS011;10614;53.198;6.570;2022-12-15T08:02:49;7.13;;;2.78;;
20908;SDS011;10614;53.198;6.570;2022-12-15T08:04:50;7.15;;;3.35;;
20908;SDS011;10614;53.198;6.570;2022-12-15T08:06:52;7.85;;;2.83;;
20908;SDS011;10614;53.198;6.570;2022-12-15T08:08:54;6.40;;;2.92;;
20908;SDS011;10614;53.198;6.570;2022-12-15T08:10:55;8.25;;;3.72;;
20908;SDS011;10614;53.198;6.570;2022-12-15T08:12:58;9.73;;;3.33;;
20908;SDS011;10614;53.198;6.570;2022-12-15T08:15:00;6.95;;;2.83;;
20908;SDS011;10614;53.198;6.570;2022-12-15T08:17:02;7.65;;;3.40;;
20908;SDS011;10614;53.198;6.570;2022-12-15T08:19:04;7.95;;;3.50;;
20908;SDS011;10614;53.198;6.570;2022-12-15T08:21:08;5.85;;;3.33;;
20908;SDS011;10614;53.198;6.570;2022-12-15T08:23:11;7.90;;;3.30;;
20908;SDS011;10614;53.198;6.570;2022-12-15T08:25:13;5.82;;;2.80;;
20908;SDS011;10614;53.198;6.570;2022-12-15T08:27:14;7.88;;;3.13;;
20908;SDS011;10614;53.198;6.570;2022-12-15T08:29:17;9.30;;;3.70;;
20908;SDS011;10614;53.198;6.570;2022-12-15T08:31:20;10.02;;;3.47;;
20908;SDS011;10614;53.198;6.570;2022-12-15T08:33:23;7.72;;;3.17;;
20908;SDS011;10614;53.198;6.570;2022-12-15T08:35:24;8.23;;;2.97;;
20908;SDS011;10614;53.198;6.570;2022-12-15T08:37:26;7.10;;;2.95;;
20908;SDS011;10614;53.198;6.570;2022-12-15T08:39:28;11.50;;;3.30;;
20908;SDS011;10614;53.198;6.570;2022-12-15T08:41:30;12.90;;;3.50;;
20908;SDS011;10614;53.198;6.570;2022-12-15T08:43:33;6.95;;;3.22;;
20908;SDS011;10614;53.198;6.570;2022-12-15T08:45:35;8.02;;;3.38;;
20908;SDS011;10614;53.198;6.570;2022-12-15T08:47:40;9.40;;;3.13;;
20908;SDS011;10614;53.198;6.570;2022-12-15T08:49:42;6.70;;;2.92;;
20908;SDS011;10614;53.198;6.570;2022-12-15T08:51:43;7.70;;;3.17;;
20908;SDS011;10614;53.198;6.570;2022-12-15T08:53:45;7.25;;;3.05;;
20908;SDS011;10614;53.198;6.570;2022-12-15T08:55:47;6.97;;;2.92;;
20908;SDS011;10614;53.198;6.570;2022-12-15T08:57:48;6.00;;;2.90;;
20908;SDS011;10614;53.198;6.570;2022-12-15T08:59:50;9.50;;;2.88;;
20908;SDS011;10614;53.198;6.570;2022-12-15T09:01:53;6.53;;;3.05;;
20908;SDS011;10614;53.198;6.570;2022-12-15T09:03:55;9.40;;;3.20;;
20908;SDS011;10614;53.198;6.570;2022-12-15T09:06:00;8.35;;;3.22;;
20908;SDS011;10614;53.198;6.570;2022-12-15T09:08:02;8.80;;;3.45;;
20908;SDS011;10614;53.198;6.570;2022-12-15T09:10:05;7.63;;;3.65;;
20908;SDS011;10614;53.198;6.570;2022-12-15T09:12:08;7.22;;;2.90;;
20908;SDS011;10614;53.198;6.570;2022-12-15T09:14:11;7.28;;;3.20;;
20908;SDS011;10614;53.198;6.570;2022-12-15T09:16:14;7.32;;;3.72;;
20908;SDS011;10614;53.198;6.570;2022-12-15T09:18:18;6.65;;;2.78;;
20908;SDS011;10614;53.198;6.570;2022-12-15T09:20:20;8.05;;;3.00;;
20908;SDS011;10614;53.198;6.570;2022-12-15T09:22:22;6.38;;;3.13;;
20908;SDS011;10614;53.198;6.570;2022-12-15T09:24:24;7.43;;;3.28;;
20908;SDS011;10614;53.198;6.570;2022-12-15T09:26:25;6.53;;;3.30;;
20908;SDS011;10614;53.198;6.570;2022-12-15T09:28:28;7.47;;;3.20;;
20908;SDS011;10614;53.198;6.570;2022-12-15T09:30:31;7.00;;;2.95;;
20908;SDS011;10614;53.198;6.570;2022-12-15T09:32:32;7.35;;;3.42;;
20908;SDS011;10614;53.198;6.570;2022-12-15T09:34:35;6.57;;;3.15;;
20908;SDS011;10614;53.198;6.570;2022-12-15T09:36:37;7.75;;;3.97;;
20908;SDS011;10614;53.198;6.570;2022-12-15T09:38:40;7.80;;;3.45;;
20908;SDS011;10614;53.198;6.570;2022-12-15T09:40:42;8.57;;;3.83;;
20908;SDS011;10614;53.198;6.570;2022-12-15T09:42:44;6.55;;;3.47;;
20908;SDS011;10614;53.198;6.570;2022-12-15T09:44:56;8.50;;;4.05;;
20908;SDS011;10614;53.198;6.570;2022-12-15T09:47:04;11.90;;;3.60;;
20908;SDS011;10614;53.198;6.570;2022-12-15T09:49:19;12.93;;;4.10;;
20908;SDS011;10614;53.198;6.570;2022-12-15T09:51:33;8.23;;;3.90;;
20908;SDS011;10614;53.198;6.570;2022-12-15T09:53:40;6.30;;;3.22;;
20908;SDS011;10614;53.198;6.570;2022-12-15T09:55:42;8.65;;;3.58;;
20908;SDS011;10614;53.198;6.570;2022-12-15T09:57:50;8.68;;;4.32;;
20908;SDS011;10614;53.198;6.570;2022-12-15T10:00:00;7.38;;;3.13;;
20908;SDS011;10614;53.198;6.570;2022-12-15T10:02:14;10.23;;;4.00;;
20908;SDS011;10614;53.198;6.570;2022-12-15T10:04:30;10.90;;;4.68;;
20908;SDS011;10614;53.198;6.570;2022-12-15T10:06:47;7.57;;;3.55;;
20908;SDS011;10614;53.198;6.570;2022-12-15T10:08:55;11.63;;;4.97;;
20908;SDS011;10614;53.198;6.570;2022-12-15T10:10:58;10.75;;;4.10;;
20908;SDS011;10614;53.198;6.570;2022-12-15T10:13:03;12.85;;;4.38;;
20908;SDS011;10614;53.198;6.570;2022-12-15T10:15:15;8.75;;;3.55;;
20908;SDS011;10614;53.198;6.570;2022-12-15T10:17:21;13.85;;;4.00;;
20908;SDS011;10614;53.198;6.570;2022-12-15T10:19:25;8.38;;;4.10;;
20908;SDS011;10614;53.198;6.570;2022-12-15T10:21:34;7.97;;;3.70;;
20908;SDS011;10614;53.198;6.570;2022-12-15T10:23:37;10.38;;;3.58;;
20908;SDS011;10614;53.198;6.570;2022-12-15T10:25:39;11.32;;;3.80;;
20908;SDS011;10614;53.198;6.570;2022-12-15T10:27:52;10.35;;;4.00;;
20908;SDS011;10614;53.198;6.570;2022-12-15T10:30:03;10.13;;;3.63;;
20908;SDS011;10614;53.198;6.570;2022-12-15T10:32:13;7.85;;;3.60;;
20908;SDS011;10614;53.198;6.570;2022-12-15T10:34:19;7.80;;;3.90;;
20908;SDS011;10614;53.198;6.570;2022-12-15T10:36:25;7.63;;;3.53;;
20908;SDS011;10614;53.198;6.570;2022-12-15T10:38:30;9.05;;;3.75;;
20908;SDS011;10614;53.198;6.570;2022-12-15T10:40:43;9.10;;;3.97;;
20908;SDS011;10614;53.198;6.570;2022-12-15T10:42:47;9.90;;;4.05;;
20908;SDS011;10614;53.198;6.570;2022-12-15T10:44:51;10.50;;;4.07;;
20908;SDS011;10614;53.198;6.570;2022-12-15T10:46:54;8.43;;;4.35;;
20908;SDS011;10614;53.198;6.570;2022-12-15T10:48:56;14.85;;;4.57;;
20908;SDS011;10614;53.198;6.570;2022-12-15T10:53:33;8.57;;;3.60;;
20908;SDS011;10614;53.198;6.570;2022-12-15T10:55:42;8.77;;;4.10;;
20908;SDS011;10614;53.198;6.570;2022-12-15T10:57:48;7.88;;;3.90;;
20908;SDS011;10614;53.198;6.570;2022-12-15T11:00:20;9.95;;;3.58;;
20908;SDS011;10614;53.198;6.570;2022-12-15T11:02:28;7.75;;;3.88;;
20908;SDS011;10614;53.198;6.570;2022-12-15T11:04:35;7.70;;;3.70;;
20908;SDS011;10614;53.198;6.570;2022-12-15T11:06:39;7.97;;;3.70;;
20908;SDS011;10614;53.198;6.570;2022-12-15T11:08:42;9.63;;;4.35;;
20908;SDS011;10614;53.198;6.570;2022-12-15T11:10:50;11.55;;;4.63;;
20908;SDS011;10614;53.198;6.570;2022-12-15T11:13:12;12.32;;;3.95;;
20908;SDS011;10614;53.198;6.570;2022-12-15T11:15:31;8.02;;;4.22;;
20908;SDS011;10614;53.198;6.570;2022-12-15T11:17:39;11.48;;;4.28;;
20908;SDS011;10614;53.198;6.570;2022-12-15T11:19:43;8.15;;;4.10;;
20908;SDS011;10614;53.198;6.570;2022-12-15T11:21:52;8.52;;;3.85;;
20908;SDS011;10614;53.198;6.570;2022-12-15T11:24:01;7.90;;;3.60;;
20908;SDS011;10614;53.198;6.570;2022-12-15T11:26:16;8.70;;;4.25;;
20908;SDS011;10614;53.198;6.570;2022-12-15T11:28:40;8.75;;;4.35;;
20908;SDS011;10614;53.198;6.570;2022-12-15T11:30:49;10.63;;;4.18;;
20908;SDS011;10614;53.198;6.570;2022-12-15T11:32:57;8.13;;;3.80;;
20908;SDS011;10614;53.198;6.570;2022-12-15T11:35:00;12.02;;;3.95;;
20908;SDS011;10614;53.198;6.570;2022-12-15T11:37:20;10.32;;;3.60;;
20908;SDS011;10614;53.198;6.570;2022-12-15T11:39:40;7.32;;;3.60;;
20908;SDS011;10614;53.198;6.570;2022-12-15T11:41:56;8.05;;;4.13;;
20908;SDS011;10614;53.198;6.570;2022-12-15T11:44:22;9.05;;;4.03;;
20908;SDS011;10614;53.198;6.570;2022-12-15T11:46:28;7.03;;;3.25;;
20908;SDS011;10614;53.198;6.570;2022-12-15T11:48:39;8.23;;;3.42;;
20908;SDS011;10614;53.198;6.570;2022-12-15T11:50:51;7.82;;;4.05;;
20908;SDS011;10614;53.198;6.570;2022-12-15T11:53:01;7.80;;;3.13;;
20908;SDS011;10614;53.198;6.570;2022-12-15T11:55:12;9.30;;;3.47;;
20908;SDS011;10614;53.198;6.570;2022-12-15T11:57:28;10.20;;;4.03;;
20908;SDS011;10614;53.198;6.570;2022-12-15T11:59:56;7.43;;;2.80;;
20908;SDS011;10614;53.198;6.570;2022-12-15T12:02:10;8.68;;;3.67;;
20908;SDS011;10614;53.198;6.570;2022-12-15T12:04:24;6.72;;;2.80;;
20908;SDS011;10614;53.198;6.570;2022-12-15T12:06:30;8.93;;;3.60;;
20908;SDS011;10614;53.198;6.570;2022-12-15T12:11:12;5.72;;;2.80;;
20908;SDS011;10614;53.198;6.570;2022-12-15T12:13:19;6.88;;;2.45;;
20908;SDS011;10614;53.198;6.570;2022-12-15T12:15:29;12.77;;;4.25;;
20908;SDS011;10614;53.198;6.570;2022-12-15T12:17:38;8.45;;;3.55;;
20908;SDS011;10614;53.198;6.570;2022-12-15T12:19:43;8.63;;;3.70;;
20908;SDS011;10614;53.198;6.570;2022-12-15T12:21:49;7.22;;;3.75;;
20908;SDS011;10614;53.198;6.570;2022-12-15T12:23:55;5.72;;;3.15;;
20908;SDS011;10614;53.198;6.570;2022-12-15T12:26:01;6.57;;;3.42;;
20908;SDS011;10614;53.198;6.570;2022-12-15T12:28:12;9.23;;;3.03;;
20908;SDS011;10614;53.198;6.570;2022-12-15T12:30:21;10.27;;;3.45;;
20908;SDS011;10614;53.198;6.570;2022-12-15T12:32:27;8.43;;;3.60;;
20908;SDS011;10614;53.198;6.570;2022-12-15T12:34:44;6.93;;;2.95;;
20908;SDS011;10614;53.198;6.570;2022-12-15T12:36:56;7.40;;;3.20;;
20908;SDS011;10614;53.198;6.570;2022-12-15T12:39:04;6.68;;;3.35;;
20908;SDS011;10614;53.198;6.570;2022-12-15T12:41:10;12.00;;;3.65;;
20908;SDS011;10614;53.198;6.570;2022-12-15T12:43:21;7.55;;;3.83;;
20908;SDS011;10614;53.198;6.570;2022-12-15T12:45:33;7.25;;;3.47;;
20908;SDS011;10614;53.198;6.570;2022-12-15T12:47:42;11.30;;;3.65;;
20908;SDS011;10614;53.198;6.570;2022-12-15T12:49:49;8.82;;;3.58;;
20908;SDS011;10614;53.198;6.570;2022-12-15T12:51:55;5.88;;;2.97;;
20908;SDS011;10614;53.198;6.570;2022-12-15T12:53:58;5.20;;;2.33;;
20908;SDS011;10614;53.198;6.570;2022-12-15T12:56:01;7.68;;;3.13;;
20908;SDS011;10614;53.198;6.570;2022-12-15T12:58:02;9.52;;;3.28;;
20908;SDS011;10614;53.198;6.570;2022-12-15T13:00:25;7.53;;;3.13;;
20908;SDS011;10614;53.198;6.570;2022-12-15T13:07:39;7.05;;;3.08;;
20908;SDS011;10614;53.198;6.570;2022-12-15T13:09:41;10.18;;;3.40;;
20908;SDS011;10614;53.198;6.570;2022-12-15T13:11:54;9.95;;;3.35;;
20908;SDS011;10614;53.198;6.570;2022-12-15T13:13:59;7.50;;;2.90;;
20908;SDS011;10614;53.198;6.570;2022-12-15T13:16:04;10.05;;;3.13;;
20908;SDS011;10614;53.198;6.570;2022-12-15T13:18:14;6.32;;;3.28;;
20908;SDS011;10614;53.198;6.570;2022-12-15T13:20:24;8.13;;;3.10;;
20908;SDS011;10614;53.198;6.570;2022-12-15T13:22:28;9.38;;;3.45;;